Time;durP1;ratioP1;P1;durP2;ratioP2;P2;SDS_P1;SDS_P2;PMS_P1;PMS_P2;Temp;Humidity;BMP_temperature;BMP_pressure;BME280_temperature;BME280_humidity;BME280_pressure;Samples;Min_cycle;Max_cycle;Signal;HPM_P1;HPM_P2
2023/12/14 00:02:13;;;;;;;0.80;0.80;;;;;;;5.69;96.07;97478.91;5037494;28;20123;-77
2023/12/14 00:04:40;;;;;;;0.80;0.80;;;;;;;5.63;95.93;97482.28;5031674;28;20039;-76
2023/12/14 00:07:05;;;;;;;0.80;0.80;;;;;;;5.69;96.03;97478.91;5045448;28;20050;-76
2023/12/14 00:09:31;;;;;;;0.80;0.80;;;;;;;5.69;95.80;97484.19;5032973;28;20486;-76
2023/12/14 00:11:56;;;;;;;0.80;0.80;;;;;;;5.67;96.11;97485.91;5038064;28;20048;-76
2023/12/14 00:14:22;;;;;;;0.70;0.70;;;;;;;5.72;96.02;97488.69;5032522;28;20044;-76
2023/12/14 00:16:49;;;;;;;0.70;0.70;;;;;;;5.76;95.55;97488.81;5030690;28;20045;-76
2023/12/14 00:19:14;;;;;;;0.80;0.80;;;;;;;5.62;96.10;97493.72;5033253;28;20033;-76
2023/12/14 00:21:40;;;;;;;0.80;0.80;;;;;;;5.61;95.72;97494.56;5031856;28;20041;-75
2023/12/14 00:24:06;;;;;;;0.80;0.80;;;;;;;5.68;96.01;97505.31;5032828;28;20537;-75
2023/12/14 00:26:32;;;;;;;0.70;0.70;;;;;;;5.63;95.88;97508.72;5032499;28;20053;-75
2023/12/14 00:28:57;;;;;;;0.80;0.80;;;;;;;5.69;96.33;97508.00;5035049;28;20076;-75
2023/12/14 00:31:22;;;;;;;0.70;0.70;;;;;;;5.68;96.05;97508.88;5036837;28;20041;-75
2023/12/14 00:33:48;;;;;;;0.70;0.70;;;;;;;5.72;95.83;97510.75;5033940;28;20460;-75
2023/12/14 00:36:20;;;;;;;0.70;0.70;;;;;;;5.66;95.97;97516.78;5031784;28;20525;-75
2023/12/14 00:38:46;;;;;;;0.80;0.80;;;;;;;5.74;95.85;97511.66;5031625;28;20043;-75
2023/12/14 00:41:11;;;;;;;0.80;0.80;;;;;;;5.74;95.55;97514.31;5030903;28;20037;-75
2023/12/14 00:43:38;;;;;;;0.70;0.70;;;;;;;5.71;95.15;97516.91;5030401;28;20464;-76
2023/12/14 00:46:03;;;;;;;0.80;0.80;;;;;;;5.70;95.76;97517.75;5035787;28;20120;-76
2023/12/14 00:48:29;;;;;;;0.80;0.80;;;;;;;5.76;95.53;97528.50;5030737;28;20426;-76
2023/12/14 00:50:54;;;;;;;0.80;0.80;;;;;;;5.76;95.95;97524.97;5029672;28;20068;-75
2023/12/14 00:53:20;;;;;;;0.70;0.70;;;;;;;5.69;95.85;97529.16;5034512;28;20111;-76
2023/12/14 00:55:45;;;;;;;0.70;0.70;;;;;;;5.75;95.23;97539.03;5030167;28;20044;-75
2023/12/14 00:58:12;;;;;;;0.70;0.70;;;;;;;5.80;95.20;97538.34;5035435;28;20064;-76
2023/12/14 01:00:38;;;;;;;0.80;0.80;;;;;;;5.73;95.65;97540.75;5031794;28;20723;-75
2023/12/14 01:03:04;;;;;;;0.80;0.80;;;;;;;5.63;95.17;97551.06;5032561;28;20060;-75
2023/12/14 01:05:29;;;;;;;0.70;0.70;;;;;;;5.57;94.47;97552.66;5032702;28;20025;-75
2023/12/14 01:07:55;;;;;;;0.70;0.70;;;;;;;5.60;94.68;97550.06;5034864;28;20041;-76
2023/12/14 01:10:20;;;;;;;0.80;0.80;;;;;;;5.61;95.02;97554.53;5031539;28;20071;-75
2023/12/14 01:12:46;;;;;;;0.80;0.80;;;;;;;5.60;95.00;97563.28;5031997;28;20073;-75
2023/12/14 01:15:12;;;;;;;0.70;0.70;;;;;;;5.63;95.45;97563.41;5033230;28;20048;-75
2023/12/14 01:17:37;;;;;;;0.70;0.70;;;;;;;5.66;95.37;97564.41;5032635;28;20032;-76
2023/12/14 01:20:07;;;;;;;0.80;0.80;;;;;;;5.72;95.09;97566.31;5032909;28;20124;-75
2023/12/14 01:22:33;;;;;;;0.80;0.80;;;;;;;5.74;95.37;97571.66;5034916;28;20487;-75
2023/12/14 01:24:59;;;;;;;0.80;0.80;;;;;;;5.65;95.19;97565.25;5031811;28;20037;-75
2023/12/14 01:27:24;;;;;;;0.70;0.70;;;;;;;5.65;95.42;97580.22;5033738;28;20434;-75
2023/12/14 01:29:50;;;;;;;0.80;0.80;;;;;;;5.71;95.08;97591.00;5031687;28;20458;-76
2023/12/14 01:32:15;;;;;;;0.77;0.77;;;;;;;5.62;95.13;97586.31;5031512;28;20033;-75
2023/12/14 01:34:41;;;;;;;0.70;0.70;;;;;;;5.60;95.25;97593.28;5030607;28;20065;-76
2023/12/14 01:37:06;;;;;;;0.80;0.80;;;;;;;5.64;95.20;97599.59;5029811;28;20115;-76
2023/12/14 01:39:32;;;;;;;0.80;0.80;;;;;;;5.63;95.23;97603.97;5031821;28;20084;-76
2023/12/14 01:41:58;;;;;;;0.80;0.80;;;;;;;5.62;95.62;97598.66;5028615;28;20400;-75
2023/12/14 01:44:24;;;;;;;0.80;0.80;;;;;;;5.71;95.65;97606.88;5029218;28;20037;-75
2023/12/14 01:46:49;;;;;;;0.80;0.80;;;;;;;5.66;95.68;97609.38;5031939;28;20106;-75
2023/12/14 01:49:15;;;;;;;0.80;0.80;;;;;;;5.64;95.85;97612.81;5034074;28;20067;-75
2023/12/14 01:51:40;;;;;;;0.80;0.80;;;;;;;5.73;95.75;97621.03;5035140;28;20049;-75
2023/12/14 01:54:06;;;;;;;0.70;0.70;;;;;;;5.78;95.72;97623.81;5031836;28;20048;-75
2023/12/14 01:56:31;;;;;;;0.80;0.80;;;;;;;5.75;95.59;97615.78;5030138;28;20052;-75
2023/12/14 01:58:56;;;;;;;0.80;0.80;;;;;;;5.79;95.42;97618.56;5035270;28;20064;-75
2023/12/14 02:01:45;;;;;;;0.70;0.70;;;;;;;5.79;95.20;97630.91;5047433;28;20037;-74
2023/12/14 02:04:12;;;;;;;0.70;0.70;;;;;;;5.80;95.35;97627.44;5033728;28;20034;-75
2023/12/14 02:06:38;;;;;;;0.80;0.80;;;;;;;5.73;95.08;97636.00;5032729;28;20107;-75
2023/12/14 02:09:04;;;;;;;0.80;0.80;;;;;;;5.73;95.04;97641.31;5029175;28;20036;-75
2023/12/14 02:11:30;;;;;;;0.70;0.70;;;;;;;5.76;94.56;97638.78;5030541;28;20041;-74
2023/12/14 02:13:55;;;;;;;0.80;0.80;;;;;;;5.71;94.08;97645.66;5030724;28;20403;-74
2023/12/14 02:16:21;;;;;;;0.80;0.80;;;;;;;5.64;94.14;97639.28;5031950;28;20665;-75
2023/12/14 02:18:46;;;;;;;0.70;0.70;;;;;;;5.59;93.95;97655.00;5029509;28;20056;-75
2023/12/14 02:21:12;;;;;;;0.80;0.80;;;;;;;5.61;94.56;97647.13;5032635;28;20040;-74
2023/12/14 02:23:45;;;;;;;0.70;0.70;;;;;;;5.57;94.27;97646.13;5029848;28;20080;-74
2023/12/14 02:26:13;;;;;;;0.70;0.70;;;;;;;5.71;94.01;97654.50;5034780;28;20108;-75
2023/12/14 02:28:39;;;;;;;0.80;0.80;;;;;;;5.57;94.56;97650.53;5036296;28;20045;-75
2023/12/14 02:31:04;;;;;;;0.82;0.82;;;;;;;5.59;94.61;97659.41;5034178;28;20048;-75
2023/12/14 02:33:30;;;;;;;0.80;0.80;;;;;;;5.54;94.63;97656.63;5032383;28;20112;-75
2023/12/14 02:35:55;;;;;;;0.80;0.80;;;;;;;5.58;94.57;97658.50;5033570;28;20072;-75
2023/12/14 02:38:21;;;;;;;0.80;0.80;;;;;;;5.59;94.69;97660.28;5028821;28;20377;-75
2023/12/14 02:40:46;;;;;;;0.80;0.80;;;;;;;5.61;94.91;97663.00;5031875;28;21019;-75
2023/12/14 02:43:12;;;;;;;0.70;0.70;;;;;;;5.68;94.71;97670.28;5030953;28;20045;-75
2023/12/14 02:45:38;;;;;;;0.80;0.80;;;;;;;5.71;94.94;97673.03;5031998;28;20422;-75
2023/12/14 02:48:04;;;;;;;0.80;0.80;;;;;;;5.66;94.67;97678.19;5032152;28;20045;-75
2023/12/14 02:50:29;;;;;;;0.80;0.80;;;;;;;5.60;94.97;97677.06;5029362;28;20052;-75
2023/12/14 02:52:55;;;;;;;0.80;0.80;;;;;;;5.62;95.17;97681.56;5033150;28;20029;-75
2023/12/14 02:55:20;;;;;;;0.90;0.90;;;;;;;5.65;95.27;97683.41;5031423;28;20143;-75
2023/12/14 02:57:45;;;;;;;0.80;0.80;;;;;;;5.71;95.25;97685.38;5036230;28;20207;-75
2023/12/14 03:00:12;;;;;;;0.80;0.80;;;;;;;5.72;95.37;97684.50;5030644;28;20391;-75
2023/12/14 03:02:37;;;;;;;0.80;0.80;;;;;;;5.71;94.92;97680.06;5029634;28;20076;-75
2023/12/14 03:05:03;;;;;;;0.80;0.80;;;;;;;5.70;94.52;97687.13;5028559;28;20120;-75
2023/12/14 03:07:28;;;;;;;0.80;0.80;;;;;;;5.68;94.61;97696.75;5034955;28;20037;-75
2023/12/14 03:09:54;;;;;;;0.80;0.80;;;;;;;5.65;94.63;97691.34;5048433;28;21558;-75
2023/12/14 03:12:19;;;;;;;0.80;0.80;;;;;;;5.64;94.36;97700.13;5026840;28;20514;-75
2023/12/14 03:14:44;;;;;;;0.75;0.75;;;;;;;5.64;94.44;97711.63;5031936;28;20042;-75
2023/12/14 03:17:12;;;;;;;0.70;0.70;;;;;;;5.66;94.53;97709.94;5031346;28;20066;-74
2023/12/14 03:19:39;;;;;;;0.80;0.80;;;;;;;5.56;95.01;97715.78;5033199;28;20060;-75
2023/12/14 03:22:05;;;;;;;;;;;;;;;5.47;94.12;97711.94;5030244;28;20036;-75
2023/12/14 03:24:30;;;;;;;0.70;0.70;;;;;;;5.45;94.65;97721.56;5032654;28;19917;-75
2023/12/14 03:26:55;;;;;;;0.80;0.80;;;;;;;5.41;94.29;97723.19;5028478;28;20523;-75
2023/12/14 03:29:21;;;;;;;0.80;0.80;;;;;;;5.39;94.33;97724.91;5028436;28;20119;-75
2023/12/14 03:31:46;;;;;;;0.80;0.80;;;;;;;5.39;94.33;97736.38;5032680;28;20041;-75
2023/12/14 03:34:12;;;;;;;0.85;0.85;;;;;;;5.42;94.59;97721.47;5033503;28;20033;-75
2023/12/14 03:36:38;;;;;;;0.80;0.80;;;;;;;5.45;94.67;97733.03;5036024;28;20049;-75
2023/12/14 03:39:03;;;;;;;0.73;0.73;;;;;;;5.49;94.43;97747.25;5034616;28;20629;-75
2023/12/14 03:41:28;;;;;;;0.80;0.80;;;;;;;5.53;94.42;97746.53;5040755;28;20048;-75
2023/12/14 03:43:54;;;;;;;0.80;0.80;;;;;;;5.54;93.94;97750.97;5032814;28;20076;-75
2023/12/14 03:46:19;;;;;;;0.80;0.80;;;;;;;5.57;94.26;97757.25;5035208;28;20048;-75
2023/12/14 03:48:45;;;;;;;0.80;0.80;;;;;;;5.54;94.00;97756.25;5047196;28;20044;-75
2023/12/14 03:51:10;;;;;;;0.70;0.70;;;;;;;5.56;94.18;97757.22;5033964;28;20036;-74
2023/12/14 03:53:35;;;;;;;0.70;0.70;;;;;;;5.55;93.99;97756.28;5041477;28;20045;-75
2023/12/14 03:56:01;;;;;;;0.80;0.80;;;;;;;5.52;93.79;97766.78;5036340;28;20048;-75
2023/12/14 03:58:26;;;;;;;0.80;0.80;;;;;;;5.53;93.78;97770.34;5034798;28;20052;-77
2023/12/14 04:00:52;;;;;;;0.70;0.70;;;;;;;5.58;93.99;97787.25;5035163;28;20546;-75
2023/12/14 04:03:18;;;;;;;0.82;0.82;;;;;;;5.52;93.75;97784.41;5030571;28;20045;-75
2023/12/14 04:05:44;;;;;;;0.77;0.77;;;;;;;5.57;93.83;97785.47;5030554;28;20029;-76
2023/12/14 04:08:10;;;;;;;0.80;0.80;;;;;;;5.55;93.96;97787.16;5039509;28;20041;-76
2023/12/14 04:10:35;;;;;;;0.80;0.80;;;;;;;5.54;93.60;97793.28;5033023;28;20044;-76
2023/12/14 04:13:01;;;;;;;0.80;0.80;;;;;;;5.59;93.70;97804.94;5034572;28;20578;-76
2023/12/14 04:15:26;;;;;;;0.70;0.70;;;;;;;5.62;93.79;97797.09;5033987;28;20514;-76
2023/12/14 04:17:52;;;;;;;0.70;0.70;;;;;;;5.62;93.74;97802.41;5034931;28;20045;-76
2023/12/14 04:20:17;;;;;;;0.80;0.80;;;;;;;5.59;94.45;97808.47;5032653;28;20427;-76
2023/12/14 04:22:44;;;;;;;0.80;0.80;;;;;;;5.63;94.39;97812.13;5030046;28;20041;-75
2023/12/14 04:25:09;;;;;;;0.80;0.80;;;;;;;5.52;94.86;97816.16;5037084;28;20049;-75
2023/12/14 04:27:35;;;;;;;0.80;0.80;;;;;;;5.56;94.60;97818.06;5035542;28;20480;-75
2023/12/14 04:30:00;;;;;;;0.80;0.80;;;;;;;5.62;94.09;97818.28;5032686;28;20485;-76
2023/12/14 04:32:25;;;;;;;0.75;0.75;;;;;;;5.50;94.90;97823.13;5034061;28;20098;-75
2023/12/14 04:34:51;;;;;;;0.80;0.80;;;;;;;5.44;95.20;97830.88;5035301;28;20498;-75
2023/12/14 04:37:16;;;;;;;0.80;0.80;;;;;;;5.45;95.10;97844.13;5032446;28;20044;-75
2023/12/14 04:39:42;;;;;;;0.80;0.80;;;;;;;5.49;94.81;97847.78;5033253;28;20037;-75
2023/12/14 04:42:07;;;;;;;0.80;0.80;;;;;;;5.56;94.78;97836.59;5029945;28;20034;-75
2023/12/14 04:44:33;;;;;;;0.80;0.80;;;;;;;5.60;94.83;97846.41;5035067;28;20045;-75
2023/12/14 04:46:58;;;;;;;0.70;0.70;;;;;;;5.58;94.42;97853.41;5030756;28;20889;-75
2023/12/14 04:49:24;;;;;;;0.80;0.80;;;;;;;5.59;94.44;97852.56;5034512;28;20035;-75
2023/12/14 04:51:49;;;;;;;0.90;0.90;;;;;;;5.64;94.18;97854.50;5031038;28;20041;-75
2023/12/14 04:54:15;;;;;;;0.73;0.73;;;;;;;5.52;93.96;97861.13;5036528;28;20415;-75
2023/12/14 04:56:41;;;;;;;0.80;0.80;;;;;;;5.54;94.31;97862.06;5031009;28;20037;-75
2023/12/14 04:59:07;;;;;;;0.80;0.80;;;;;;;5.68;94.06;97851.97;5037139;28;20037;-75
2023/12/14 05:01:32;;;;;;;0.80;0.80;;;;;;;5.68;94.69;97866.09;5035072;28;20037;-75
2023/12/14 05:03:58;;;;;;;0.70;0.70;;;;;;;5.60;94.96;97862.28;5029748;28;20127;-75
2023/12/14 05:06:23;;;;;;;0.80;0.80;;;;;;;5.48;94.84;97867.16;5029849;28;20389;-75
2023/12/14 05:08:48;;;;;;;0.80;0.80;;;;;;;5.44;95.01;97870.53;5031089;28;20403;-75
2023/12/14 05:11:14;;;;;;;0.90;0.90;;;;;;;5.43;95.04;97872.28;5027881;28;20068;-75
2023/12/14 05:13:40;;;;;;;0.80;0.80;;;;;;;5.41;95.66;97871.31;5032852;28;20372;-75
2023/12/14 05:16:06;;;;;;;0.80;0.80;;;;;;;5.40;95.42;97885.41;5030500;28;20073;-75
2023/12/14 05:18:32;;;;;;;0.70;0.70;;;;;;;5.38;95.73;97881.81;5032193;28;20083;-76
2023/12/14 05:20:58;;;;;;;0.80;0.80;;;;;;;5.38;96.12;97887.09;5028194;28;20124;-76
2023/12/14 05:23:24;;;;;;;0.60;0.60;;;;;;;5.44;95.84;97886.41;5029600;28;20136;-76
2023/12/14 05:25:50;;;;;;;0.82;0.82;;;;;;;5.50;95.84;97898.09;5029757;28;20123;-76
2023/12/14 05:28:15;;;;;;;0.80;0.80;;;;;;;5.50;95.86;97897.19;5030972;28;20041;-78
2023/12/14 05:30:41;;;;;;;0.80;0.80;;;;;;;5.61;95.91;97909.09;5030236;28;20037;-77
2023/12/14 05:33:07;;;;;;;0.80;0.80;;;;;;;5.61;96.18;97911.72;5031949;28;20166;-77
2023/12/14 05:35:32;;;;;;;0.70;0.70;;;;;;;5.69;95.66;97917.28;5031445;28;20094;-77
2023/12/14 05:37:58;;;;;;;0.90;0.90;;;;;;;5.64;95.80;97919.75;5032488;28;20049;-76
2023/12/14 05:40:23;;;;;;;0.80;0.80;;;;;;;5.63;95.86;97921.50;5032430;28;20045;-75
2023/12/14 05:42:49;;;;;;;0.80;0.80;;;;;;;5.51;95.59;97921.09;5034298;28;20043;-75
2023/12/14 05:45:14;;;;;;;0.80;0.80;;;;;;;5.47;95.79;97931.50;5030560;28;20749;-75
2023/12/14 05:47:41;;;;;;;0.70;0.70;;;;;;;5.49;96.01;97941.28;5033070;28;20091;-75
2023/12/14 05:50:09;;;;;;;0.80;0.80;;;;;;;5.53;95.87;97944.94;5031187;28;20116;-75
2023/12/14 05:52:35;;;;;;;0.73;0.73;;;;;;;5.54;96.02;97949.38;5033889;28;20041;-77
2023/12/14 05:55:01;;;;;;;0.70;0.70;;;;;;;5.58;96.20;97946.00;5037361;28;20487;-76
2023/12/14 05:57:26;;;;;;;0.80;0.80;;;;;;;5.53;96.03;97953.78;5033577;28;20130;-76
2023/12/14 05:59:52;;;;;;;0.90;0.90;;;;;;;5.56;95.66;97955.66;5033185;28;20688;-77
2023/12/14 06:02:17;;;;;;;0.90;0.90;;;;;;;5.70;95.80;97969.34;5030719;28;20044;-75
2023/12/14 06:04:42;;;;;;;0.70;0.70;;;;;;;5.58;95.31;97970.72;5037648;28;20384;-76
2023/12/14 06:07:08;;;;;;;0.80;0.80;;;;;;;5.57;95.53;97973.31;5033187;28;20082;-76
2023/12/14 06:09:34;;;;;;;0.73;0.73;;;;;;;5.50;95.58;97976.56;5032005;28;20094;-76
2023/12/14 06:12:01;;;;;;;0.80;0.80;;;;;;;5.52;95.50;97980.19;5029058;28;20055;-76
2023/12/14 06:14:27;;;;;;;0.80;0.80;;;;;;;5.48;95.34;97986.22;5031614;28;20140;-76
2023/12/14 06:16:53;;;;;;;0.80;0.80;;;;;;;5.51;96.04;97983.66;5030989;28;20488;-76
2023/12/14 06:19:18;;;;;;;0.80;0.80;;;;;;;5.46;95.88;97991.47;5032753;28;20783;-76
2023/12/14 06:21:44;;;;;;;0.80;0.80;;;;;;;5.42;96.10;97996.56;5029805;28;20073;-76
2023/12/14 06:24:09;;;;;;;0.80;0.80;;;;;;;5.49;96.31;97996.84;5030881;28;20896;-76
2023/12/14 06:26:34;;;;;;;0.90;0.90;;;;;;;5.51;96.31;98002.19;5029968;28;20041;-76
2023/12/14 06:29:00;;;;;;;0.80;0.80;;;;;;;5.48;96.18;97996.78;5030374;28;20146;-76
2023/12/14 06:31:25;;;;;;;0.80;0.80;;;;;;;5.35;96.70;98006.91;5031821;28;20044;-76
2023/12/14 06:33:51;;;;;;;0.80;0.80;;;;;;;5.29;97.07;98016.34;5031808;28;20069;-76
2023/12/14 06:36:19;;;;;;;0.80;0.80;;;;;;;5.30;97.01;98020.78;5028491;28;20041;-76
2023/12/14 06:38:45;;;;;;;0.80;0.80;;;;;;;5.25;97.03;98012.69;5030883;28;20194;-76
2023/12/14 06:41:21;;;;;;;0.90;0.90;;;;;;;5.33;97.35;98021.81;5032317;28;20124;-76
2023/12/14 06:43:47;;;;;;;0.90;0.90;;;;;;;5.39;97.10;98019.41;5030502;28;20103;-76
2023/12/14 06:46:13;;;;;;;0.90;0.90;;;;;;;5.46;97.22;98027.56;5030608;28;20072;-76
2023/12/14 06:48:38;;;;;;;0.80;0.80;;;;;;;5.62;97.00;98035.25;5028676;28;20455;-76
2023/12/14 06:51:04;;;;;;;0.88;0.88;;;;;;;5.78;97.12;98048.19;5033934;28;20471;-76
2023/12/14 06:53:30;;;;;;;0.80;0.80;;;;;;;5.75;96.41;98049.81;5036136;28;20048;-75
2023/12/14 06:55:55;;;;;;;0.90;0.90;;;;;;;5.83;95.82;98056.28;5032108;28;20515;-77
2023/12/14 06:58:21;;;;;;;0.90;0.90;;;;;;;5.88;95.29;98058.25;5030764;28;20120;-75
2023/12/14 07:00:47;;;;;;;0.70;0.70;;;;;;;5.76;95.10;98070.16;5025797;28;20088;-76
2023/12/14 07:03:13;;;;;;;0.90;0.90;;;;;;;5.53;96.11;98069.28;5031668;28;20037;-76
2023/12/14 07:05:39;;;;;;;0.90;0.90;;;;;;;5.44;96.13;98082.16;5044433;28;20078;-75
2023/12/14 07:08:04;;;;;;;0.80;0.80;;;;;;;5.29;96.50;98083.38;5034014;28;20061;-75
2023/12/14 07:10:30;;;;;;;0.80;0.80;;;;;;;5.37;96.73;98097.81;5042855;28;20042;-76
2023/12/14 07:12:55;;;;;;;0.90;0.90;;;;;;;5.38;96.70;98115.47;5034533;28;20128;-75
2023/12/14 07:15:20;;;;;;;0.90;0.90;;;;;;;5.44;96.79;98108.63;5033824;28;20153;-75
2023/12/14 07:17:46;;;;;;;0.90;0.90;;;;;;;5.56;96.82;98115.31;5035674;28;20041;-75
2023/12/14 07:20:12;;;;;;;0.80;0.80;;;;;;;5.60;96.68;98126.88;5035073;28;20029;-75
2023/12/14 07:22:37;;;;;;;0.90;0.90;;;;;;;5.52;96.80;98128.34;5042141;28;20041;-75
2023/12/14 07:25:03;;;;;;;0.90;0.90;;;;;;;5.52;97.52;98126.59;5036782;28;20025;-75
2023/12/14 07:27:29;;;;;;;1.00;1.00;;;;;;;5.50;97.66;98130.91;5038958;28;20049;-75
2023/12/14 07:29:55;;;;;;;0.90;0.90;;;;;;;5.36;97.70;98135.66;5036736;28;20440;-75
2023/12/14 07:32:21;;;;;;;0.80;0.80;;;;;;;5.31;97.67;98136.31;5032932;28;20046;-75
2023/12/14 07:34:47;;;;;;;0.90;0.90;;;;;;;5.26;98.10;98141.41;5032687;28;20040;-75
2023/12/14 07:37:13;;;;;;;0.90;0.90;;;;;;;5.17;97.90;98145.44;5034222;28;20064;-75
2023/12/14 07:39:38;;;;;;;0.90;0.90;;;;;;;5.23;97.80;98143.06;5035227;28;20048;-75
2023/12/14 07:42:05;;;;;;;0.88;0.88;;;;;;;5.44;98.00;98151.84;5036680;28;20518;-75
2023/12/14 07:44:30;;;;;;;0.90;0.90;;;;;;;5.48;97.81;98152.88;5032255;28;20044;-75
2023/12/14 07:46:56;;;;;;;0.80;0.80;;;;;;;5.61;97.64;98157.81;5034789;28;20286;-75
2023/12/14 07:49:23;;;;;;;0.80;0.80;;;;;;;5.69;97.67;98160.75;5035025;28;20053;-75
2023/12/14 07:51:49;;;;;;;0.80;0.80;;;;;;;5.72;97.19;98164.41;5036411;28;20037;-75
2023/12/14 07:54:15;;;;;;;0.90;0.90;;;;;;;5.67;96.79;98171.28;5033461;28;20037;-76
2023/12/14 07:56:40;;;;;;;0.90;0.90;;;;;;;5.63;96.95;98170.25;5033025;28;20091;-75
2023/12/14 07:59:07;;;;;;;0.90;0.90;;;;;;;5.59;96.84;98178.00;5033807;28;20037;-76
2023/12/14 08:01:36;;;;;;;0.70;0.70;;;;;;;5.57;96.94;98170.03;5035870;28;20033;-76
2023/12/14 08:04:02;;;;;;;0.85;0.85;;;;;;;5.62;97.29;98179.03;5040869;28;20652;-76
2023/12/14 08:06:27;;;;;;;0.80;0.80;;;;;;;5.76;97.17;98182.22;5034257;28;20095;-75
2023/12/14 08:08:53;;;;;;;0.90;0.90;;;;;;;5.79;97.11;98187.63;5036089;28;20025;-75
2023/12/14 08:11:18;;;;;;;0.80;0.80;;;;;;;5.90;96.95;98194.25;5032702;28;20036;-76
2023/12/14 08:13:44;;;;;;;0.82;0.82;;;;;;;6.10;96.92;98195.03;5033117;28;20029;-75
2023/12/14 08:16:11;;;;;;;0.90;0.90;;;;;;;6.10;96.63;98191.50;5034301;28;20454;-75
2023/12/14 08:18:36;;;;;;;0.80;0.80;;;;;;;6.21;96.61;98206.03;5032152;28;20043;-75
2023/12/14 08:21:02;;;;;;;0.80;0.80;;;;;;;6.19;95.29;98210.38;5034185;28;20036;-75
2023/12/14 08:23:29;;;;;;;0.80;0.80;;;;;;;6.22;95.13;98213.13;5032723;28;20407;-75
2023/12/14 08:25:58;;;;;;;0.90;0.90;;;;;;;6.30;95.11;98219.63;5038569;28;20033;-76
2023/12/14 08:28:25;;;;;;;0.80;0.80;;;;;;;6.50;95.22;98223.00;5037214;28;20209;-75
2023/12/14 08:30:51;;;;;;;0.90;0.90;;;;;;;6.57;94.84;98232.09;5037141;28;20350;-75
2023/12/14 08:33:17;;;;;;;0.70;0.70;;;;;;;6.48;94.56;98235.31;5038036;28;20092;-76
2023/12/14 08:35:42;;;;;;;0.70;0.70;;;;;;;6.54;94.09;98245.25;5035765;28;20116;-75
2023/12/14 08:38:08;;;;;;;0.70;0.70;;;;;;;6.47;93.59;98245.84;5034842;28;20032;-75
2023/12/14 08:40:33;;;;;;;0.80;0.80;;;;;;;6.55;93.51;98247.03;5034059;28;20045;-75
2023/12/14 08:42:59;;;;;;;0.80;0.80;;;;;;;6.51;93.49;98255.72;5033263;28;20056;-75
2023/12/14 08:45:24;;;;;;;0.65;0.65;;;;;;;6.64;93.21;98260.63;5033202;28;20041;-74
2023/12/14 08:47:50;;;;;;;0.73;0.73;;;;;;;6.64;92.96;98265.94;5033739;28;20172;-75
2023/12/14 08:50:15;;;;;;;0.80;0.80;;;;;;;6.72;92.61;98280.38;5030324;28;20402;-75
2023/12/14 08:52:41;;;;;;;0.70;0.70;;;;;;;6.69;92.18;98267.91;5028609;28;20080;-75
2023/12/14 08:55:08;;;;;;;0.80;0.80;;;;;;;6.69;91.85;98280.25;5032562;28;20399;-75
2023/12/14 08:57:34;;;;;;;0.70;0.70;;;;;;;6.67;92.44;98288.16;5033809;28;20042;-75
2023/12/14 09:00:00;;;;;;;0.80;0.80;;;;;;;6.82;91.82;98290.47;5033180;28;20436;-75
2023/12/14 09:02:26;;;;;;;0.70;0.70;;;;;;;6.82;91.55;98298.44;5033116;28;20094;-75
2023/12/14 09:04:52;;;;;;;0.80;0.80;;;;;;;6.91;91.26;98296.13;5036327;28;20391;-75
2023/12/14 09:07:17;;;;;;;0.70;0.70;;;;;;;6.90;91.29;98304.91;5036344;28;20038;-75
2023/12/14 09:09:43;;;;;;;0.80;0.80;;;;;;;7.08;90.94;98309.97;5034631;28;20509;-75
2023/12/14 09:12:09;;;;;;;0.70;0.70;;;;;;;6.88;90.74;98313.66;5039305;28;20752;-76
2023/12/14 09:14:35;;;;;;;0.70;0.70;;;;;;;7.05;90.81;98316.94;5035037;28;20037;-76
2023/12/14 09:17:00;;;;;;;0.80;0.80;;;;;;;7.09;90.59;98311.78;5034454;28;20037;-76
2023/12/14 09:19:26;;;;;;;0.80;0.80;;;;;;;7.10;90.25;98315.34;5034156;28;20072;-75
2023/12/14 09:21:51;;;;;;;0.80;0.80;;;;;;;7.06;90.47;98322.28;5038617;28;20041;-76
2023/12/14 09:24:17;;;;;;;0.70;0.70;;;;;;;7.41;89.81;98320.88;5036294;28;20046;-76
2023/12/14 09:26:43;;;;;;;0.70;0.70;;;;;;;7.62;88.66;98327.78;5033881;28;20037;-76
2023/12/14 09:29:08;;;;;;;0.70;0.70;;;;;;;7.80;88.67;98338.09;5035842;28;20087;-76
2023/12/14 09:31:34;;;;;;;0.80;0.80;;;;;;;8.13;87.20;98333.91;5036727;28;20041;-76
2023/12/14 09:33:59;;;;;;;0.70;0.70;;;;;;;7.96;86.70;98336.03;5036574;28;20357;-76
2023/12/14 09:36:24;;;;;;;0.75;0.75;;;;;;;7.85;86.46;98345.38;5033530;28;20021;-76
2023/12/14 09:38:50;;;;;;;0.70;0.70;;;;;;;7.89;87.18;98344.63;5037990;28;20076;-76
2023/12/14 09:41:15;;;;;;;0.77;0.77;;;;;;;7.96;86.52;98346.66;5034041;28;20103;-75
2023/12/14 09:43:41;;;;;;;0.70;0.70;;;;;;;8.40;84.39;98357.84;5038023;28;20136;-75
2023/12/14 09:46:08;;;;;;;0.70;0.70;;;;;;;8.36;83.72;98355.94;5037578;28;20154;-75
2023/12/14 09:48:34;;;;;;;0.70;0.70;;;;;;;8.05;84.60;98354.03;5038190;28;20541;-75
2023/12/14 09:50:59;;;;;;;0.65;0.65;;;;;;;7.70;86.24;98366.09;5032940;28;20037;-75
2023/12/14 09:53:25;;;;;;;0.70;0.70;;;;;;;7.63;87.17;98365.00;5032789;28;20394;-75
2023/12/14 09:55:50;;;;;;;0.70;0.70;;;;;;;7.53;86.95;98367.28;5032399;28;20041;-74
2023/12/14 09:58:16;;;;;;;0.73;0.73;;;;;;;7.62;86.92;98371.16;5032097;28;20040;-75
2023/12/14 10:00:42;;;;;;;0.80;0.80;;;;;;;7.66;87.20;98367.75;5032769;28;20037;-75
2023/12/14 10:03:18;;;;;;;0.80;0.80;;;;;;;7.79;87.19;98374.38;5031727;28;20460;-75
2023/12/14 10:05:43;;;;;;;0.70;0.70;;;;;;;7.85;86.99;98374.59;5030224;28;20057;-75
2023/12/14 10:08:09;;;;;;;0.80;0.80;;;;;;;7.83;87.23;98378.97;5030961;28;20025;-75
2023/12/14 10:10:34;;;;;;;0.70;0.70;;;;;;;7.80;86.45;98380.59;5031127;28;20041;-75
2023/12/14 10:13:00;;;;;;;0.70;0.70;;;;;;;7.80;87.36;98384.16;5029899;28;20087;-74
2023/12/14 10:15:26;;;;;;;0.70;0.70;;;;;;;7.69;86.58;98399.72;5031799;28;20029;-74
2023/12/14 10:17:54;;;;;;;0.80;0.80;;;;;;;7.63;87.42;98401.28;5030203;28;20076;-75
2023/12/14 10:20:23;;;;;;;;;;;;;;;7.77;86.79;98400.00;5047497;28;20045;-75
2023/12/14 10:22:52;;;;;;;0.77;0.77;;;;;;;8.03;86.33;98395.56;5030398;28;19948;-75
2023/12/14 10:25:19;;;;;;;0.80;0.80;;;;;;;8.34;84.40;98400.16;5030306;28;20073;-75
2023/12/14 10:27:48;;;;;;;0.80;0.80;;;;;;;8.22;84.73;98411.28;5032550;28;20072;-75
2023/12/14 10:30:15;;;;;;;0.70;0.70;;;;;;;8.20;85.27;98409.44;5031111;28;20438;-75
2023/12/14 10:32:41;;;;;;;0.70;0.70;;;;;;;8.09;84.59;98413.47;5037769;28;20490;-75
2023/12/14 10:35:07;;;;;;;0.80;0.80;;;;;;;8.03;84.94;98419.47;5033625;28;20435;-75
2023/12/14 10:37:37;;;;;;;0.70;0.70;;;;;;;7.88;85.44;98421.63;5030723;28;20048;-75
2023/12/14 10:40:05;;;;;;;0.70;0.70;;;;;;;7.84;86.09;98417.03;5033638;28;20115;-75
2023/12/14 10:42:34;;;;;;;0.70;0.70;;;;;;;7.87;86.45;98422.47;5035792;28;20502;-75
2023/12/14 10:45:02;;;;;;;0.70;0.70;;;;;;;7.77;86.08;98423.00;5036452;28;20461;-75
2023/12/14 10:47:28;;;;;;;0.70;0.70;;;;;;;7.96;85.76;98428.09;5035318;28;20365;-75
2023/12/14 10:49:54;;;;;;;0.70;0.70;;;;;;;8.00;84.99;98423.78;5039675;28;20407;-75
2023/12/14 10:52:22;;;;;;;0.80;0.80;;;;;;;8.24;84.75;98429.94;5033032;28;20180;-75
2023/12/14 10:54:52;;;;;;;0.80;0.80;;;;;;;8.38;84.25;98427.75;5035571;28;20049;-75
2023/12/14 10:57:17;;;;;;;0.70;0.70;;;;;;;8.50;83.48;98433.47;5036825;28;20056;-75
2023/12/14 10:59:43;;;;;;;0.80;0.80;;;;;;;8.65;82.25;98433.06;5038756;28;20049;-75
2023/12/14 11:02:10;;;;;;;0.80;0.80;;;;;;;8.61;82.49;98431.16;5043800;28;20585;-75
2023/12/14 11:04:54;;;;;;;0.70;0.70;;;;;;;8.47;81.76;98439.59;5040891;28;20033;-75
2023/12/14 11:07:42;;;;;;;0.70;0.70;;;;;;;8.27;82.99;98445.97;5038890;28;20037;-75
2023/12/14 11:10:09;;;;;;;0.70;0.70;;;;;;;8.36;83.14;98448.97;5035552;28;20045;-75
2023/12/14 11:12:34;;;;;;;0.80;0.80;;;;;;;8.39;83.19;98456.16;5039613;28;20041;-75
2023/12/14 11:15:00;;;;;;;0.70;0.70;;;;;;;8.43;83.54;98451.00;5037338;28;20056;-74
2023/12/14 11:17:26;;;;;;;0.70;0.70;;;;;;;8.41;82.39;98452.69;5039140;28;20037;-75
2023/12/14 11:19:53;;;;;;;0.60;0.60;;;;;;;8.42;82.57;98458.91;5036905;28;20044;-75
2023/12/14 11:22:27;;;;;;;0.77;0.77;;;;;;;8.36;82.53;98451.63;5040007;28;20044;-76
2023/12/14 11:24:56;;;;;;;0.70;0.70;;;;;;;8.35;82.84;98454.22;5039165;28;20053;-76
2023/12/14 11:27:29;;;;;;;0.70;0.70;;;;;;;8.36;82.17;98456.00;5039303;28;20029;-76
2023/12/14 11:29:56;;;;;;;0.80;0.80;;;;;;;8.41;82.62;98463.31;5035739;28;20084;-75
2023/12/14 11:32:21;;;;;;;0.80;0.80;;;;;;;8.34;82.14;98461.28;5036515;28;20025;-76
2023/12/14 11:34:47;;;;;;;0.70;0.70;;;;;;;8.50;81.30;98461.81;5036905;28;20037;-75
2023/12/14 11:37:13;;;;;;;0.70;0.70;;;;;;;8.45;81.93;98465.22;5037409;28;20429;-76